Main page
METAR-TAF:

METAR-TAF

Airports :

Arthur N. Neu Airport

Carroll, Iowa, United States

latitude: 42-03N, longitude: 094-47W, elevation: 1230 ft

Current weather observation

The report was made 27 minutes ago, at 21:55 UTC
Wind 18 mph from the South/Southeast with gusts up to 26 mph
Temperature 68°F
Humidity 43%
Pressure 29.81 in. Hg
Visibility: 10 miles
Clear sky

METAR: KCIN 012155Z AUTO 16016G23KT 10SM CLR 20/07 A2981 RMK AO2

Time: 17:22 (22:22 UTC)


TAF: missing

Weather observations and forecasts of more than 4000 airports (METAR and TAF reports).

The available stations are represented by yellow and red dots on the map.

Hover mouse over dot to see the name of the station.

Then click to see weather observations and forecasts.

To change the map : click on the green buttons with a black cross to zoom in, on the green button with a dash to zoom out, or on the green arrows for adjacent maps.


METAR-TAF: